Terminal Aerodrome Forecast
Issued by NWS

Home | Current Version | Previous Version | Graphics & Text | Print | Product List | Glossary On
Versions: 1 2 3 4 5 6 7 8 9 10 11 12 13 14 15
000
FTUS45 KGGW 162000 AAA
TAFSDY
TAF AMD
KSDY 162051Z 1621/1718 06009KT P6SM OVC025
     FM162200 09010KT P6SM SCT025 OVC035
     FM170400 10008KT P6SM BKN030
     FM170900 11009KT P6SM OVC015
      AMD LTD TO CLD VIS AND WIND=

USA.gov is the U.S. government's official web portal to all federal, state and local government web resources and services.